createdAt,value
2023-05-24T00:04:33.152Z,80.52
2023-05-24T00:09:33.054Z,81.30
2023-05-24T00:14:32.985Z,81.91
2023-05-24T00:19:32.911Z,79.71
2023-05-24T00:24:32.841Z,77.47
2023-05-24T00:29:32.783Z,76.79
2023-05-24T00:34:32.707Z,73.26
2023-05-24T00:39:32.646Z,74.24
2023-05-24T00:44:32.595Z,72.58
2023-05-24T00:49:32.508Z,73.09
2023-05-24T00:54:32.439Z,73.23
2023-05-24T00:59:32.376Z,71.77
2023-05-24T01:04:32.312Z,71.26
2023-05-24T01:09:32.246Z,72.62
2023-05-24T01:14:32.170Z,72.21
2023-05-24T01:19:32.110Z,75.78
2023-05-24T01:24:32.034Z,75.02
2023-05-24T01:29:31.978Z,73.26
2023-05-24T01:34:31.907Z,75.37
2023-05-24T01:39:31.844Z,74.93
2023-05-24T01:44:31.776Z,69.46
2023-05-24T01:49:31.722Z,69.36
2023-05-24T01:54:31.634Z,70.28
2023-05-24T01:59:31.599Z,70.55
2023-05-24T02:04:31.507Z,70.34
2023-05-24T02:09:31.431Z,73.06
2023-05-24T02:14:31.365Z,72.69
2023-05-24T02:19:31.334Z,69.70
2023-05-24T02:24:31.246Z,67.22
2023-05-24T02:29:31.165Z,65.57
2023-05-24T02:34:31.093Z,66.85
2023-05-24T02:39:31.035Z,66.38
2023-05-24T02:44:30.960Z,68.27
2023-05-24T02:49:30.895Z,66.96
2023-05-24T02:54:30.834Z,66.85
2023-05-24T02:59:30.763Z,68.54
2023-05-24T03:04:30.696Z,70.85
2023-05-24T03:09:30.625Z,70.78
2023-05-24T03:14:30.562Z,72.79
2023-05-24T03:19:30.510Z,75.27
2023-05-24T03:24:30.435Z,77.22
2023-05-24T03:29:30.383Z,75.65
2023-05-24T03:34:30.310Z,74.25
2023-05-24T03:39:30.228Z,73.27
2023-05-24T03:44:30.172Z,74.38
2023-05-24T03:49:30.094Z,77.69
2023-05-24T03:54:30.022Z,72.96
2023-05-24T03:59:29.964Z,75.34
2023-05-24T04:04:29.926Z,74.87
2023-05-24T04:09:29.855Z,76.16
2023-05-24T04:14:29.760Z,74.25
2023-05-24T04:19:29.696Z,73.81
2023-05-24T04:24:29.686Z,74.79
2023-05-24T04:29:29.565Z,71.33
2023-05-24T04:34:29.490Z,72.89
2023-05-24T04:39:29.430Z,73.33
2023-05-24T04:44:29.366Z,75.17
2023-05-24T04:49:29.313Z,73.94
2023-05-24T04:54:29.234Z,73.57
2023-05-24T04:59:29.165Z,74.35
2023-05-24T05:04:29.093Z,73.03
2023-05-24T05:09:29.033Z,74.87
2023-05-24T05:14:28.967Z,72.11
2023-05-24T05:19:28.902Z,73.13
2023-05-24T05:24:28.829Z,72.24
2023-05-24T05:29:28.788Z,71.12
2023-05-24T05:34:28.696Z,73.77
2023-05-24T05:39:28.633Z,69.32
2023-05-24T05:44:28.553Z,71.73
2023-05-24T05:49:28.522Z,68.44
2023-05-24T05:54:28.435Z,67.46
2023-05-24T05:59:28.368Z,65.94
2023-05-24T06:04:28.368Z,66.79
2023-05-24T06:09:28.245Z,65.16
2023-05-24T06:14:28.201Z,62.85
2023-05-24T06:19:28.106Z,60.42
2023-05-24T06:24:28.027Z,58.37
2023-05-24T06:29:27.953Z,60.61
2023-05-24T06:34:27.885Z,61.53
2023-05-24T06:39:27.823Z,61.68
2023-05-24T06:44:27.761Z,60.71
2023-05-24T06:49:27.704Z,60.38
2023-05-24T06:54:27.633Z,59.97
2023-05-24T06:59:27.569Z,60.46
2023-05-24T07:04:27.521Z,58.78
2023-05-24T07:09:27.442Z,58.71
2023-05-24T07:14:27.419Z,61.99
2023-05-24T07:19:27.304Z,62.72
2023-05-24T07:24:27.227Z,65.73
2023-05-24T07:29:27.245Z,64.81
2023-05-24T07:34:27.091Z,66.20
2023-05-24T07:39:27.057Z,67.38
2023-05-24T07:44:27.017Z,68.95
2023-05-24T07:49:26.899Z,69.63
2023-05-24T07:54:26.983Z,69.70
2023-05-24T07:59:26.828Z,69.06
2023-05-24T08:04:26.760Z,64.72
2023-05-24T08:09:26.733Z,65.46
2023-05-24T08:14:26.665Z,64.54
2023-05-24T08:19:26.576Z,64.07
2023-05-24T08:24:26.505Z,62.68
2023-05-24T08:29:26.437Z,64.34
2023-05-24T08:34:26.390Z,63.53
2023-05-24T08:39:26.322Z,64.38
2023-05-24T08:44:26.253Z,63.36
2023-05-24T08:49:26.148Z,61.40
2023-05-24T08:54:26.066Z,62.49
2023-05-24T08:59:26.215Z,60.13
2023-05-24T09:04:26.013Z,58.34
2023-05-24T09:09:25.879Z,58.06
2023-05-24T09:14:25.841Z,56.57
2023-05-24T09:19:25.763Z,56.23
2023-05-24T09:24:25.705Z,54.53
2023-05-24T09:29:25.606Z,56.86
2023-05-24T09:34:25.538Z,57.14
2023-05-24T09:39:25.520Z,54.16
2023-05-24T09:44:25.416Z,51.43
2023-05-24T09:49:25.340Z,49.48
2023-05-24T09:54:25.283Z,46.78
2023-05-24T09:59:25.526Z,49.73
2023-05-24T10:04:26.777Z,50.22
2023-05-24T10:09:25.060Z,50.73
2023-05-24T10:14:25.313Z,50.70
2023-05-24T10:19:24.950Z,47.61
2023-05-24T10:24:25.189Z,50.18
2023-05-24T10:29:24.816Z,46.10
2023-05-24T10:34:24.740Z,49.76
2023-05-24T10:39:24.869Z,53.58
2023-05-24T10:44:24.592Z,49.65
2023-05-24T10:49:24.549Z,49.93
2023-05-24T10:54:24.465Z,47.66
2023-05-24T10:59:24.393Z,51.11
2023-05-24T11:04:24.308Z,47.58
2023-05-24T11:09:24.719Z,50.32
2023-05-24T11:14:24.161Z,49.04
2023-05-24T11:19:24.097Z,49.19
2023-05-24T11:24:24.024Z,50.75
2023-05-24T11:29:23.983Z,52.29
2023-05-24T11:34:23.933Z,48.58
2023-05-24T11:39:23.892Z,48.69
2023-05-24T11:44:23.769Z,51.28
2023-05-24T11:49:23.694Z,48.09
2023-05-24T11:54:23.623Z,50.10
2023-05-24T11:59:23.588Z,47.13
2023-05-24T12:04:23.611Z,51.64
2023-05-24T12:09:23.443Z,50.43
2023-05-24T12:14:23.356Z,50.20
2023-05-24T12:19:32.887Z,51.46
2023-05-24T12:24:24.234Z,50.45
2023-05-24T12:29:23.171Z,48.97
2023-05-24T12:34:23.100Z,47.12
2023-05-24T12:39:23.033Z,46.61
2023-05-24T12:44:22.997Z,47.30
2023-05-24T12:49:22.881Z,47.66
2023-05-24T12:54:22.830Z,50.20
2023-05-24T12:59:22.736Z,49.46
2023-05-24T13:04:22.683Z,48.78
2023-05-24T13:09:22.626Z,49.33
2023-05-24T13:14:22.554Z,50.96
2023-05-24T13:19:22.503Z,48.27
2023-05-24T13:24:22.405Z,47.69
2023-05-24T13:29:36.448Z,50.02
2023-05-24T13:34:23.288Z,49.79
2023-05-24T13:39:22.210Z,51.30
2023-05-24T13:44:22.135Z,50.98
2023-05-24T13:49:22.067Z,49.73
2023-05-24T13:54:22.009Z,46.68
2023-05-24T13:59:21.925Z,49.69
2023-05-24T14:04:21.930Z,52.36
2023-05-24T14:09:21.806Z,52.31
2023-05-24T14:14:58.410Z,55.57
2023-05-24T14:19:22.693Z,52.56
2023-05-24T14:24:21.597Z,52.64
2023-05-24T14:29:21.536Z,50.80
2023-05-24T14:34:21.469Z,51.96
2023-05-24T14:39:21.398Z,50.50
2023-05-24T14:44:21.340Z,50.35
2023-05-24T14:49:21.262Z,50.98
2023-05-24T14:54:21.204Z,49.79
2023-05-24T14:59:21.165Z,52.76
2023-05-24T15:04:21.073Z,52.34
2023-05-24T15:09:21.014Z,53.05
2023-05-24T15:14:20.953Z,51.98
2023-05-24T15:19:20.865Z,54.00
2023-05-24T15:24:20.802Z,52.67
2023-05-24T15:29:20.732Z,51.86
2023-05-24T15:34:23.438Z,51.57
2023-05-24T15:39:20.597Z,51.25
2023-05-24T15:44:20.573Z,52.14
2023-05-24T15:49:20.471Z,50.84
2023-05-24T15:54:20.397Z,51.78
2023-05-24T15:59:21.560Z,52.08
2023-05-24T16:04:20.310Z,52.28
2023-05-24T16:09:20.195Z,52.48
2023-05-24T16:14:20.125Z,52.06
2023-05-24T16:19:20.053Z,52.46
2023-05-24T16:24:20.017Z,53.14
2023-05-24T16:29:19.929Z,53.93
2023-05-24T16:34:19.854Z,54.00
2023-05-24T16:39:19.805Z,57.51
2023-05-24T16:44:19.739Z,50.02
2023-05-24T16:49:19.669Z,51.31
2023-05-24T16:54:19.595Z,49.92
2023-05-24T16:59:19.565Z,53.20
2023-05-24T17:04:19.493Z,52.01
2023-05-24T17:09:19.410Z,50.50
2023-05-24T17:14:19.333Z,50.45
2023-05-24T17:19:19.266Z,52.79
2023-05-24T17:24:19.444Z,52.01
2023-05-24T17:29:19.135Z,52.21
2023-05-24T17:34:19.067Z,52.16
2023-05-24T17:39:18.991Z,51.91
2023-05-24T17:44:18.962Z,53.52
2023-05-24T17:49:18.877Z,55.27
2023-05-24T17:54:19.779Z,53.22
2023-05-24T17:59:18.753Z,52.03
2023-05-24T18:04:19.397Z,53.78
2023-05-24T18:09:18.689Z,54.41
2023-05-24T18:14:18.616Z,53.09
2023-05-24T18:19:18.541Z,55.24
2023-05-24T18:24:18.400Z,55.60
2023-05-24T18:29:18.359Z,56.64
2023-05-24T18:34:18.289Z,56.34
2023-05-24T18:39:18.180Z,57.68
2023-05-24T18:44:18.137Z,58.31
2023-05-24T18:49:18.441Z,58.52
2023-05-24T18:54:18.017Z,59.89
2023-05-24T18:59:17.944Z,60.83
2023-05-24T19:04:17.909Z,62.29
2023-05-24T19:09:17.782Z,62.62
2023-05-24T19:14:17.819Z,63.97
2023-05-24T19:19:17.653Z,64.07
2023-05-24T19:24:17.585Z,65.97
2023-05-24T19:29:17.544Z,67.02
2023-05-24T19:34:17.502Z,66.41
2023-05-24T19:39:17.418Z,67.43
2023-05-24T19:44:17.378Z,69.59
2023-05-24T19:49:17.292Z,69.29
2023-05-24T19:54:17.198Z,69.49
2023-05-24T19:59:17.149Z,69.83
2023-05-24T20:04:17.154Z,71.50
2023-05-24T20:09:17.498Z,72.96
2023-05-24T20:14:16.938Z,75.54
2023-05-24T20:19:16.857Z,76.19
2023-05-24T20:24:16.792Z,77.04
2023-05-24T20:29:16.720Z,77.56
2023-05-24T20:34:16.650Z,78.17
2023-05-24T20:39:16.578Z,79.02
2023-05-24T20:44:16.545Z,79.84
2023-05-24T20:49:16.464Z,80.80
2023-05-24T20:54:16.373Z,81.21
2023-05-24T20:59:16.320Z,81.86
2023-05-24T21:04:16.266Z,83.50
2023-05-24T21:09:16.176Z,85.11
2023-05-24T21:14:16.122Z,85.52
2023-05-24T21:19:16.051Z,84.91
2023-05-24T21:24:15.998Z,86.24
2023-05-24T21:29:15.910Z,86.07
2023-05-24T21:34:15.853Z,85.42
2023-05-24T21:39:15.779Z,86.18
2023-05-24T21:44:15.706Z,87.96
2023-05-24T21:49:15.656Z,88.41
2023-05-24T21:54:15.580Z,88.62
2023-05-24T21:59:15.522Z,89.23
2023-05-24T22:04:15.585Z,90.30
2023-05-24T22:09:15.395Z,91.57
2023-05-24T22:14:15.332Z,92.40
2023-05-24T22:19:18.451Z,92.19
2023-05-24T22:24:16.201Z,93.05
2023-05-24T22:29:15.152Z,93.26
2023-05-24T22:34:15.062Z,93.77
2023-05-24T22:39:14.995Z,94.18
2023-05-24T22:44:14.936Z,93.77
2023-05-24T22:49:14.876Z,94.39
2023-05-24T22:54:14.797Z,94.70
2023-05-24T22:59:14.736Z,94.80
2023-05-24T23:04:21.262Z,95.10
2023-05-24T23:09:15.588Z,95.15
2023-05-24T23:14:14.542Z,95.25
2023-05-24T23:19:14.449Z,95.46
2023-05-24T23:24:14.411Z,96.48
2023-05-24T23:29:14.375Z,97.10
2023-05-24T23:34:14.254Z,97.36
2023-05-24T23:39:14.179Z,97.56
2023-05-24T23:44:14.126Z,97.77
2023-05-24T23:49:14.066Z,98.18
2023-05-24T23:54:14.004Z,98.74
2023-05-24T23:59:13.906Z,98.84
